Time;durP1;ratioP1;P1;durP2;ratioP2;P2;SDS_P1;SDS_P2;PMS_P1;PMS_P2;Temp;Humidity;BMP_temperature;BMP_pressure;BME280_temperature;BME280_humidity;BME280_pressure;Samples;Min_cycle;Max_cycle;Signal;HPM_P1;HPM_P2
2021/09/05 00:02:21;;;;;;;52.30;28.52;;;20.30;66.80;;;;;;5037686;28;20655;-72
2021/09/05 00:04:47;;;;;;;51.05;27.83;;;20.30;68.20;;;;;;5038028;28;20483;-71
2021/09/05 00:07:13;;;;;;;54.38;28.02;;;20.30;67.40;;;;;;5037503;28;20018;-71
2021/09/05 00:09:38;;;;;;;49.45;26.75;;;20.20;68.00;;;;;;5037380;28;20060;-71
2021/09/05 00:12:05;;;;;;;46.15;27.33;;;20.20;66.60;;;;;;5037575;28;20105;-71
2021/09/05 00:14:31;;;;;;;55.50;29.80;;;20.20;66.70;;;;;;5037845;28;20144;-71
2021/09/05 00:16:57;;;;;;;57.13;31.55;;;20.10;70.30;;;;;;5037540;28;20108;-71
2021/09/05 00:19:23;;;;;;;59.97;31.20;;;20.10;70.10;;;;;;5037701;28;20052;-71
2021/09/05 00:21:48;;;;;;;59.80;29.70;;;20.10;68.70;;;;;;5037438;28;20428;-71
2021/09/05 00:24:14;;;;;;;60.30;32.40;;;20.10;69.80;;;;;;5037494;28;20464;-71
2021/09/05 00:26:40;;;;;;;57.20;29.55;;;20.10;71.20;;;;;;5037587;28;20536;-71
2021/09/05 00:29:06;;;;;;;56.45;29.40;;;20.00;69.70;;;;;;5037602;28;20026;-71
2021/09/05 00:31:32;;;;;;;55.60;29.95;;;20.00;69.00;;;;;;5036081;28;20029;-71
2021/09/05 00:34:01;;;;;;;55.42;28.20;;;20.00;67.90;;;;;;5037064;28;20107;-71
2021/09/05 00:36:27;;;;;;;48.63;27.55;;;19.90;67.10;;;;;;5036068;28;20025;-71
2021/09/05 00:38:52;;;;;;;49.00;27.15;;;19.90;66.60;;;;;;5037406;28;20387;-71
2021/09/05 00:41:18;;;;;;;46.35;25.45;;;19.90;66.40;;;;;;5037343;28;20099;-71
2021/09/05 00:43:56;;;;;;;51.40;28.50;;;19.90;65.70;;;;;;5037697;28;20021;-71
2021/09/05 00:46:22;;;;;;;49.65;28.20;;;19.80;66.00;;;;;;5037184;28;20030;-71
2021/09/05 00:48:48;;;;;;;56.55;31.33;;;19.80;66.00;;;;;;5037307;28;20795;-71
2021/09/05 00:51:14;;;;;;;60.00;31.38;;;19.80;67.40;;;;;;5037338;28;20478;-71
2021/09/05 00:53:40;;;;;;;53.45;29.83;;;19.80;68.60;;;;;;5036856;28;20053;-71
2021/09/05 00:56:06;;;;;;;62.53;32.17;;;19.80;67.00;;;;;;5037465;28;20022;-71
2021/09/05 00:58:34;;;;;;;60.47;31.77;;;19.70;69.20;;;;;;5037348;28;20047;-71
2021/09/05 01:01:00;;;;;;;63.42;31.25;;;19.70;68.90;;;;;;5037212;28;20018;-71
2021/09/05 01:03:26;;;;;;;61.25;30.05;;;19.70;69.90;;;;;;5037260;28;20033;-71
2021/09/05 01:05:52;;;;;;;59.30;29.70;;;19.70;69.50;;;;;;5037159;28;20386;-71
2021/09/05 01:08:18;;;;;;;57.92;30.00;;;19.60;69.40;;;;;;5036979;28;20029;-72
2021/09/05 01:10:44;;;;;;;65.70;33.65;;;19.60;70.60;;;;;;5037209;28;20033;-71
2021/09/05 01:13:10;;;;;;;66.82;33.95;;;19.60;72.10;;;;;;5036870;28;20037;-72
2021/09/05 01:15:36;;;;;;;56.03;30.02;;;19.50;71.50;;;;;;5037248;28;20502;-71
2021/09/05 01:18:01;;;;;;;55.10;28.73;;;19.50;69.60;;;;;;5035646;28;20029;-71
2021/09/05 01:20:27;;;;;;;52.28;27.90;;;19.40;68.00;;;;;;5037263;28;20013;-71
2021/09/05 01:22:53;;;;;;;50.85;27.75;;;19.40;67.20;;;;;;5040002;28;20025;-71
2021/09/05 01:25:19;;;;;;;57.97;28.98;;;19.40;66.70;;;;;;5040458;28;20475;-71
2021/09/05 01:27:45;;;;;;;50.95;26.83;;;19.40;66.20;;;;;;5040862;28;20100;-71
2021/09/05 01:30:11;;;;;;;48.35;28.02;;;19.40;66.20;;;;;;5040615;28;20109;-71
2021/09/05 01:32:37;;;;;;;55.20;28.20;;;19.40;66.10;;;;;;5040318;28;20046;-71
2021/09/05 01:35:04;;;;;;;58.10;30.33;;;19.30;66.20;;;;;;5040837;28;20053;-71
2021/09/05 01:37:30;;;;;;;57.80;29.33;;;19.30;68.70;;;;;;5040402;28;20472;-71
2021/09/05 01:39:57;;;;;;;56.38;28.08;;;19.20;67.70;;;;;;5040514;28;20022;-71
2021/09/05 01:42:22;;;;;;;54.75;27.88;;;19.20;67.20;;;;;;5040401;28;20017;-71
2021/09/05 01:44:48;;;;;;;53.60;30.30;;;19.20;67.20;;;;;;5040795;28;20383;-71
2021/09/05 01:47:14;;;;;;;50.88;27.25;;;19.20;66.90;;;;;;5040334;28;20030;-71
2021/09/05 01:49:40;;;;;;;55.22;29.85;;;19.20;66.90;;;;;;5040599;28;20022;-71
2021/09/05 01:52:06;;;;;;;52.38;27.83;;;19.10;67.00;;;;;;5040224;28;20038;-71
2021/09/05 01:54:31;;;;;;;53.53;27.42;;;19.10;66.80;;;;;;5040321;28;20060;-71
2021/09/05 01:56:57;;;;;;;53.90;28.30;;;19.10;66.70;;;;;;5040366;28;20076;-71
2021/09/05 01:59:23;;;;;;;50.05;26.88;;;19.10;66.70;;;;;;5040045;28;20018;-71
2021/09/05 02:01:49;;;;;;;47.42;24.90;;;19.00;66.50;;;;;;5040099;28;20030;-71
2021/09/05 02:04:15;;;;;;;48.80;27.27;;;19.00;66.30;;;;;;5038583;28;20017;-71
2021/09/05 02:06:40;;;;;;;51.50;26.85;;;19.00;66.40;;;;;;5039790;28;20038;-71
2021/09/05 02:09:06;;;;;;;49.55;26.88;;;18.90;66.40;;;;;;5039744;28;20033;-71
2021/09/05 02:11:32;;;;;;;47.72;26.20;;;19.00;66.60;;;;;;5038635;28;20030;-71
2021/09/05 02:13:58;;;;;;;46.50;24.98;;;18.90;66.50;;;;;;5039759;28;20025;-71
2021/09/05 02:16:24;;;;;;;47.05;27.25;;;18.90;66.30;;;;;;5039955;28;20472;-72
2021/09/05 02:18:50;;;;;;;53.80;28.30;;;18.80;66.40;;;;;;5039987;28;20017;-71
2021/09/05 02:21:16;;;;;;;49.83;26.23;;;18.80;66.40;;;;;;5039903;28;20475;-71
2021/09/05 02:23:42;;;;;;;49.60;25.85;;;18.80;66.40;;;;;;5039281;28;20390;-71
2021/09/05 02:26:08;;;;;;;46.15;26.75;;;18.80;66.40;;;;;;5039604;28;20076;-71
2021/09/05 02:28:34;;;;;;;47.67;26.77;;;18.70;66.50;;;;;;5039624;28;20037;-71
2021/09/05 02:31:00;;;;;;;47.35;25.50;;;18.70;66.50;;;;;;5039646;28;20025;-72
2021/09/05 02:33:26;;;;;;;47.08;25.30;;;18.70;66.40;;;;;;5038669;28;20085;-71
2021/09/05 02:35:52;;;;;;;43.85;24.80;;;18.60;66.10;;;;;;5039458;28;20475;-71
2021/09/05 02:38:18;;;;;;;47.42;24.58;;;18.60;66.10;;;;;;5039258;28;20080;-71
2021/09/05 02:40:43;;;;;;;48.53;25.98;;;18.60;66.00;;;;;;5039494;28;20026;-71
2021/09/05 02:43:09;;;;;;;43.80;24.90;;;18.60;65.80;;;;;;5039275;28;20030;-72
2021/09/05 02:45:35;;;;;;;49.30;24.48;;;18.60;66.00;;;;;;5039423;28;20025;-72
2021/09/05 02:48:02;;;;;;;49.83;25.30;;;18.50;66.90;;;;;;5039134;28;20025;-71
2021/09/05 02:50:27;;;;;;;54.28;28.38;;;18.50;67.30;;;;;;5039314;28;20022;-71
2021/09/05 02:52:53;;;;;;;55.58;29.75;;;18.50;68.20;;;;;;5038818;28;20036;-72
2021/09/05 02:55:19;;;;;;;53.85;28.70;;;18.50;70.50;;;;;;5039039;28;20020;-71
2021/09/05 02:57:45;;;;;;;52.33;29.33;;;18.40;72.10;;;;;;5039314;28;20411;-72
2021/09/05 03:00:11;;;;;;;60.65;32.55;;;18.40;70.60;;;;;;5038997;28;20028;-72
2021/09/05 03:02:37;;;;;;;60.58;30.38;;;18.40;73.00;;;;;;5038834;28;20030;-72
2021/09/05 03:05:03;;;;;;;60.95;31.73;;;18.40;73.00;;;;;;5039088;28;20049;-72
2021/09/05 03:07:29;;;;;;;60.95;29.25;;;18.30;74.30;;;;;;5038841;28;20022;-71
2021/09/05 03:09:55;;;;;;;58.75;30.75;;;18.30;72.40;;;;;;5038914;28;20022;-71
2021/09/05 03:12:23;;;;;;;58.47;28.98;;;18.20;74.90;;;;;;5038626;28;20026;-71
2021/09/05 03:14:49;;;;;;;56.95;29.38;;;18.20;74.90;;;;;;5038687;28;20021;-71
2021/09/05 03:17:15;;;;;;;55.67;29.13;;;18.20;75.60;;;;;;5038735;28;20031;-71
2021/09/05 03:19:41;;;;;;;49.42;26.20;;;18.20;73.10;;;;;;5038671;28;20013;-71
2021/09/05 03:22:07;;;;;;;42.80;23.70;;;18.10;71.10;;;;;;5038326;28;20037;-72
2021/09/05 03:24:33;;;;;;;44.30;24.48;;;18.10;70.00;;;;;;5038612;28;20025;-71
2021/09/05 03:26:58;;;;;;;47.17;23.92;;;18.10;69.30;;;;;;5025211;28;20034;-71
2021/09/05 03:29:24;;;;;;;43.63;22.95;;;18.10;69.00;;;;;;5038467;28;20018;-71
2021/09/05 03:31:50;;;;;;;37.45;21.42;;;18.10;68.80;;;;;;5038147;28;20096;-71
2021/09/05 03:34:16;;;;;;;44.15;23.52;;;18.10;68.60;;;;;;5038441;28;20453;-71
2021/09/05 03:36:43;;;;;;;38.92;20.85;;;18.00;68.30;;;;;;5038072;28;20070;-71
2021/09/05 03:39:09;;;;;;;36.78;20.88;;;18.00;68.10;;;;;;5036798;28;20570;-71
2021/09/05 03:41:35;;;;;;;39.05;22.05;;;18.00;68.10;;;;;;5038305;28;20045;-72
2021/09/05 03:44:01;;;;;;;38.88;21.90;;;18.00;67.80;;;;;;5037367;28;20108;-72
2021/09/05 03:46:27;;;;;;;38.72;20.75;;;18.00;67.90;;;;;;5038247;28;20506;-71
2021/09/05 03:48:52;;;;;;;37.17;21.15;;;17.90;67.90;;;;;;5038115;28;20412;-71
2021/09/05 03:51:18;;;;;;;37.70;20.85;;;17.90;67.80;;;;;;5037903;28;20075;-71
2021/09/05 03:53:45;;;;;;;39.33;22.33;;;17.90;68.80;;;;;;5037833;28;20051;-71
2021/09/05 03:56:11;;;;;;;39.53;21.02;;;17.90;68.90;;;;;;5036778;28;20025;-71
2021/09/05 03:58:37;;;;;;;35.55;21.02;;;17.90;68.30;;;;;;5037867;28;20028;-71
2021/09/05 04:01:03;;;;;;;37.72;20.25;;;17.80;67.90;;;;;;5037975;28;20084;-72
2021/09/05 04:03:29;;;;;;;34.13;19.35;;;17.80;67.80;;;;;;5037836;28;20029;-71
2021/09/05 04:05:54;;;;;;;33.70;18.30;;;17.80;67.60;;;;;;5038759;28;20104;-71
2021/09/05 04:08:30;;;;;;;35.20;19.77;;;17.80;67.20;;;;;;5037578;28;20036;-72
2021/09/05 04:10:56;;;;;;;38.28;20.90;;;17.80;67.20;;;;;;5037863;28;20032;-72
2021/09/05 04:13:21;;;;;;;34.95;19.85;;;17.70;67.80;;;;;;5037523;28;20037;-72
2021/09/05 04:15:47;;;;;;;33.97;19.63;;;17.70;67.50;;;;;;5038026;28;20044;-71
2021/09/05 04:18:13;;;;;;;39.15;22.50;;;17.70;67.40;;;;;;5037491;28;20388;-71
2021/09/05 04:20:39;;;;;;;35.65;18.85;;;17.70;67.40;;;;;;5037867;28;20025;-71
2021/09/05 04:23:05;;;;;;;38.03;20.58;;;17.70;67.30;;;;;;5037447;28;20029;-71
2021/09/05 04:25:31;;;;;;;39.10;22.02;;;17.60;67.50;;;;;;5037619;28;20037;-71
2021/09/05 04:27:56;;;;;;;39.70;21.75;;;17.60;67.50;;;;;;5037398;28;20079;-71
2021/09/05 04:30:22;;;;;;;41.72;23.50;;;17.60;67.80;;;;;;5037632;28;20021;-71
2021/09/05 04:32:50;;;;;;;39.45;21.70;;;17.60;68.10;;;;;;5037072;28;20053;-71
2021/09/05 04:35:15;;;;;;;38.80;21.92;;;17.50;67.80;;;;;;5037541;28;20013;-71
2021/09/05 04:37:41;;;;;;;39.38;20.98;;;17.50;67.70;;;;;;5037179;28;20049;-71
2021/09/05 04:40:07;;;;;;;40.42;22.98;;;17.50;67.70;;;;;;5036133;28;20022;-71
2021/09/05 04:42:35;;;;;;;40.15;24.17;;;17.40;69.50;;;;;;5037334;28;20032;-71
2021/09/05 04:45:01;;;;;;;38.55;23.10;;;17.40;71.90;;;;;;5037662;28;20026;-71
2021/09/05 04:47:27;;;;;;;38.47;22.98;;;17.40;70.30;;;;;;5037292;28;20032;-72
2021/09/05 04:49:53;;;;;;;38.70;21.35;;;17.30;69.10;;;;;;5037383;28;20049;-71
2021/09/05 04:52:19;;;;;;;41.42;22.80;;;17.30;68.50;;;;;;5037073;28;20053;-72
2021/09/05 04:54:44;;;;;;;38.88;21.65;;;17.30;68.40;;;;;;5037171;28;20032;-71
2021/09/05 04:57:10;;;;;;;35.60;20.45;;;17.30;68.20;;;;;;5039799;28;20083;-71
2021/09/05 04:59:36;;;;;;;41.97;22.45;;;17.30;68.30;;;;;;5041242;28;20488;-71
2021/09/05 05:02:02;;;;;;;34.75;20.80;;;17.30;68.20;;;;;;5041258;28;20030;-71
2021/09/05 05:04:28;;;;;;;47.85;23.25;;;17.20;68.10;;;;;;5039948;28;20040;-72
2021/09/05 05:06:54;;;;;;;41.75;22.02;;;17.20;68.10;;;;;;5040910;28;20026;-71
2021/09/05 05:09:19;;;;;;;41.55;23.13;;;17.20;68.10;;;;;;5041017;28;20541;-71
2021/09/05 05:11:45;;;;;;;52.88;25.88;;;17.20;68.10;;;;;;5041047;28;20481;-71
2021/09/05 05:14:12;;;;;;;49.00;24.90;;;17.30;68.60;;;;;;5041097;28;20025;-72
2021/09/05 05:16:38;;;;;;;48.85;23.48;;;17.30;68.60;;;;;;5041056;28;20109;-72
2021/09/05 05:19:04;;;;;;;49.85;26.55;;;17.30;69.70;;;;;;5041187;28;20101;-72
2021/09/05 05:21:30;;;;;;;50.10;25.33;;;17.30;68.80;;;;;;5040606;28;20040;-72
2021/09/05 05:23:57;;;;;;;51.83;25.45;;;17.30;68.80;;;;;;5040879;28;20029;-72
2021/09/05 05:26:26;;;;;;;55.78;25.65;;;17.40;70.30;;;;;;5040658;28;20029;-72
2021/09/05 05:28:52;;;;;;;54.55;25.88;;;17.40;71.20;;;;;;5040756;28;20017;-71
2021/09/05 05:31:18;;;;;;;47.60;24.63;;;17.40;70.50;;;;;;5040628;28;20822;-72
2021/09/05 05:33:44;;;;;;;51.00;27.58;;;17.40;71.30;;;;;;5040318;28;20040;-73
2021/09/05 05:36:10;;;;;;;51.10;25.48;;;17.40;75.10;;;;;;5040422;28;20029;-71
2021/09/05 05:38:37;;;;;;;48.58;24.17;;;17.40;72.30;;;;;;5040690;28;20406;-72
2021/09/05 05:41:03;;;;;;;41.53;22.27;;;17.40;71.40;;;;;;5040395;28;20036;-72
2021/09/05 05:43:29;;;;;;;44.03;22.75;;;17.40;71.10;;;;;;5040569;28;20479;-72
2021/09/05 05:45:54;;;;;;;46.25;24.88;;;17.40;71.50;;;;;;5040323;28;20075;-72
2021/09/05 05:48:20;;;;;;;44.28;24.27;;;17.50;73.30;;;;;;5040643;28;20029;-72
2021/09/05 05:50:47;;;;;;;47.65;25.90;;;17.40;72.80;;;;;;5040438;28;20041;-71
2021/09/05 05:53:14;;;;;;;48.63;25.85;;;17.50;74.80;;;;;;5039996;28;20411;-72
2021/09/05 05:55:41;;;;;;;42.90;23.80;;;17.40;77.10;;;;;;5040098;28;20025;-72
2021/09/05 05:58:07;;;;;;;39.58;20.33;;;17.40;74.40;;;;;;5040183;28;20075;-72
2021/09/05 06:00:35;;;;;;;33.33;20.52;;;17.40;76.10;;;;;;5038752;28;20487;-71
2021/09/05 06:03:01;;;;;;;32.85;18.50;;;17.40;74.80;;;;;;5040056;28;20083;-72
2021/09/05 06:05:27;;;;;;;29.67;17.35;;;17.40;74.40;;;;;;5039969;28;20083;-71
2021/09/05 06:07:53;;;;;;;28.85;16.17;;;17.40;73.60;;;;;;5039042;28;20022;-72
2021/09/05 06:10:19;;;;;;;28.10;17.23;;;17.40;74.00;;;;;;5039789;28;20034;-71
2021/09/05 06:12:45;;;;;;;25.63;15.55;;;17.40;73.10;;;;;;5038590;28;20061;-72
2021/09/05 06:15:11;;;;;;;23.70;13.82;;;17.40;72.10;;;;;;5040059;28;20056;-72
2021/09/05 06:17:37;;;;;;;28.15;15.90;;;17.40;71.40;;;;;;5040016;28;20073;-72
2021/09/05 06:20:05;;;;;;;25.48;15.15;;;17.50;71.30;;;;;;5039979;28;20505;-72
2021/09/05 06:22:30;;;;;;;25.38;15.73;;;17.50;71.30;;;;;;5039541;28;20014;-72
2021/09/05 06:24:56;;;;;;;25.13;16.15;;;17.50;71.10;;;;;;5039742;28;20104;-72
2021/09/05 06:27:22;;;;;;;25.23;16.23;;;17.50;71.10;;;;;;5039832;28;20040;-71
2021/09/05 06:29:48;;;;;;;30.48;17.40;;;17.50;71.10;;;;;;5039530;28;20026;-72
2021/09/05 06:32:13;;;;;;;32.60;18.83;;;17.60;71.10;;;;;;5039532;28;20045;-71
2021/09/05 06:34:39;;;;;;;30.67;18.88;;;17.60;71.50;;;;;;5039408;28;20476;-72
2021/09/05 06:37:05;;;;;;;29.40;18.80;;;17.70;71.80;;;;;;5038014;28;20433;-72
2021/09/05 06:39:31;;;;;;;28.50;18.75;;;17.70;73.90;;;;;;5039329;28;20038;-71
2021/09/05 06:41:58;;;;;;;34.88;20.63;;;17.70;75.30;;;;;;5039369;28;20018;-71
2021/09/05 06:44:25;;;;;;;28.33;17.80;;;17.80;74.40;;;;;;5037922;28;20397;-71
2021/09/05 06:46:51;;;;;;;31.65;19.48;;;17.80;73.70;;;;;;5039381;28;20030;-72
2021/09/05 06:49:17;;;;;;;32.65;20.40;;;17.80;74.40;;;;;;5037886;28;20061;-71
2021/09/05 06:51:43;;;;;;;31.40;19.95;;;17.90;75.90;;;;;;5039041;28;20017;-71
2021/09/05 06:54:08;;;;;;;33.50;20.40;;;17.90;75.90;;;;;;5037570;28;20037;-71
2021/09/05 06:56:35;;;;;;;31.67;19.65;;;17.90;74.80;;;;;;5039173;28;20076;-71
2021/09/05 06:59:00;;;;;;;31.83;21.27;;;18.00;73.70;;;;;;5038943;28;20100;-71
2021/09/05 07:01:27;;;;;;;30.25;19.35;;;18.00;74.40;;;;;;5039033;28;20064;-72
2021/09/05 07:03:52;;;;;;;26.20;17.25;;;18.10;74.00;;;;;;5039001;28;20025;-71
2021/09/05 07:06:18;;;;;;;26.23;16.67;;;18.10;73.40;;;;;;5038787;28;20120;-71
2021/09/05 07:08:44;;;;;;;31.17;20.27;;;18.20;75.20;;;;;;5038750;28;20029;-71
2021/09/05 07:11:10;;;;;;;29.63;19.40;;;18.30;74.50;;;;;;5038924;28;20017;-72
2021/09/05 07:13:36;;;;;;;28.98;18.08;;;18.30;74.10;;;;;;5038683;28;20033;-72
2021/09/05 07:16:02;;;;;;;29.38;19.20;;;18.40;73.90;;;;;;5038807;28;20017;-71
2021/09/05 07:18:27;;;;;;;28.27;19.17;;;18.50;74.30;;;;;;5038765;28;20028;-71
2021/09/05 07:20:53;;;;;;;28.05;18.92;;;18.50;73.90;;;;;;5038723;28;20472;-71
2021/09/05 07:23:19;;;;;;;31.38;20.45;;;18.60;73.50;;;;;;5038310;28;20057;-72
2021/09/05 07:25:45;;;;;;;31.27;21.73;;;18.70;73.90;;;;;;5038473;28;20446;-72
2021/09/05 07:28:11;;;;;;;31.58;21.98;;;18.80;73.60;;;;;;5038669;28;20033;-71
2021/09/05 07:30:37;;;;;;;33.75;22.85;;;18.90;73.80;;;;;;5038565;28;20055;-71
2021/09/05 07:33:02;;;;;;;33.08;23.17;;;19.00;73.70;;;;;;5038069;28;20045;-71
2021/09/05 07:35:28;;;;;;;31.45;21.02;;;19.00;74.10;;;;;;5038557;28;20018;-71
2021/09/05 07:37:54;;;;;;;30.25;22.00;;;19.10;73.50;;;;;;5038125;28;20117;-71
2021/09/05 07:40:21;;;;;;;28.33;19.23;;;19.20;73.50;;;;;;5038265;28;20022;-71
2021/09/05 07:42:47;;;;;;;28.40;20.13;;;19.40;74.00;;;;;;5038123;28;20049;-71
2021/09/05 07:45:13;;;;;;;28.02;20.33;;;19.50;74.10;;;;;;5036968;28;20021;-71
2021/09/05 07:47:39;;;;;;;27.02;18.58;;;19.70;74.30;;;;;;5036767;28;20030;-71
2021/09/05 07:50:07;;;;;;;28.33;19.10;;;19.90;74.40;;;;;;5038068;28;20107;-72
2021/09/05 07:52:33;;;;;;;26.17;19.30;;;20.00;74.30;;;;;;5037552;28;20084;-71
2021/09/05 07:54:59;;;;;;;29.80;20.00;;;20.20;74.60;;;;;;5037899;28;20021;-71
2021/09/05 07:57:24;;;;;;;29.95;20.05;;;20.30;74.60;;;;;;5037900;28;20021;-71
2021/09/05 07:59:50;;;;;;;30.30;20.83;;;20.60;74.70;;;;;;5037895;28;20455;-71
2021/09/05 08:02:16;;;;;;;25.27;19.27;;;20.80;74.80;;;;;;5037953;28;20407;-71
2021/09/05 08:04:42;;;;;;;26.20;19.25;;;21.00;74.50;;;;;;5037884;28;20436;-72
2021/09/05 08:07:07;;;;;;;25.83;19.13;;;21.30;74.20;;;;;;5037590;28;20033;-71
2021/09/05 08:09:33;;;;;;;24.20;17.30;;;21.60;74.10;;;;;;5037826;28;20021;-71
2021/09/05 08:11:59;;;;;;;23.98;17.05;;;21.90;73.90;;;;;;5037570;28;20030;-72
2021/09/05 08:14:25;;;;;;;22.00;17.15;;;22.10;73.50;;;;;;5037754;28;20025;-71
2021/09/05 08:16:50;;;;;;;22.45;16.88;;;22.40;72.40;;;;;;5037745;28;20022;-72
2021/09/05 08:19:17;;;;;;;23.83;16.70;;;22.70;71.60;;;;;;5037839;28;20383;-72
2021/09/05 08:21:43;;;;;;;27.98;18.50;;;23.10;71.50;;;;;;5037565;28;20024;-72
2021/09/05 08:24:09;;;;;;;23.00;16.98;;;23.40;72.40;;;;;;5037440;28;20081;-72
2021/09/05 08:26:35;;;;;;;23.02;17.10;;;23.70;72.10;;;;;;5037586;28;20053;-72
2021/09/05 08:29:01;;;;;;;22.75;16.50;;;24.10;71.20;;;;;;5037613;28;20529;-72
2021/09/05 08:31:27;;;;;;;24.65;17.52;;;24.40;71.20;;;;;;5036984;28;20021;-72
2021/09/05 08:33:52;;;;;;;23.08;18.10;;;24.80;70.70;;;;;;5037071;28;20056;-72
2021/09/05 08:36:18;;;;;;;24.23;17.73;;;25.10;70.20;;;;;;5037131;28;20018;-72
2021/09/05 08:38:44;;;;;;;25.63;16.70;;;25.50;69.70;;;;;;5037573;28;20018;-72
2021/09/05 08:41:10;;;;;;;25.15;18.10;;;25.80;69.20;;;;;;5037349;28;20560;-72
2021/09/05 08:43:37;;;;;;;27.77;18.42;;;26.20;68.90;;;;;;5037356;28;20052;-72
2021/09/05 08:46:05;;;;;;;25.75;18.65;;;26.60;68.70;;;;;;5037164;28;20033;-72
2021/09/05 08:48:30;;;;;;;29.23;20.02;;;27.00;68.00;;;;;;5037370;28;20129;-72
2021/09/05 08:50:57;;;;;;;27.40;19.83;;;27.40;67.50;;;;;;5037204;28;20053;-72
2021/09/05 08:53:23;;;;;;;26.80;17.85;;;27.90;67.10;;;;;;5037043;28;20053;-72
2021/09/05 08:55:50;;;;;;;26.67;20.48;;;28.30;66.40;;;;;;5037051;28;20491;-72
2021/09/05 08:58:16;;;;;;;25.08;18.83;;;28.70;65.70;;;;;;5037408;28;20026;-72
2021/09/05 09:00:42;;;;;;;24.17;17.30;;;29.10;65.30;;;;;;5037135;28;20026;-72
2021/09/05 09:03:09;;;;;;;26.45;18.77;;;29.50;64.70;;;;;;5037404;28;20554;-72
2021/09/05 09:05:36;;;;;;;25.38;18.95;;;29.80;63.50;;;;;;5037316;28;20068;-73
2021/09/05 09:08:11;;;;;;;26.88;18.98;;;30.20;63.00;;;;;;5037063;28;20026;-72
2021/09/05 09:10:54;;;;;;;23.73;16.83;;;30.50;62.70;;;;;;5037016;28;20029;-73
2021/09/05 09:13:33;;;;;;;24.38;17.40;;;30.90;62.70;;;;;;5036940;28;20387;-73
2021/09/05 09:16:10;;;;;;;21.23;16.13;;;31.20;61.80;;;;;;5037351;28;20033;-71
2021/09/05 09:18:39;;;;;;;22.17;16.40;;;31.50;60.60;;;;;;5037010;28;20017;-70
2021/09/05 09:21:07;;;;;;;20.42;15.80;;;31.80;59.90;;;;;;5037016;28;20095;-71
2021/09/05 09:23:34;;;;;;;20.58;14.93;;;32.00;59.50;;;;;;5037056;28;20037;-71
2021/09/05 09:26:11;;;;;;;24.58;18.10;;;32.20;59.10;;;;;;5036942;28;20415;-71
2021/09/05 09:28:43;;;;;;;20.60;15.20;;;32.40;58.80;;;;;;5037280;28;20029;-71
2021/09/05 09:31:22;;;;;;;20.73;16.60;;;32.80;58.50;;;;;;5037026;28;20076;-71
2021/09/05 09:33:54;;;;;;;19.35;12.60;;;33.10;57.70;;;;;;5036475;28;20048;-71
2021/09/05 09:36:22;;;;;;;13.95;11.60;;;33.40;57.80;;;;;;5036593;28;20021;-71
2021/09/05 09:38:58;;;;;;;16.65;12.90;;;33.70;57.30;;;;;;5036683;28;20099;-71
2021/09/05 09:41:37;;;;;;;13.40;10.45;;;33.90;54.70;;;;;;5036762;28;20080;-71
2021/09/05 09:44:12;;;;;;;16.92;10.15;;;34.20;55.90;;;;;;5038773;28;20479;-71
2021/09/05 09:46:39;;;;;;;12.82;9.32;;;34.40;55.40;;;;;;5040673;28;20468;-71
2021/09/05 09:49:10;;;;;;;11.65;9.43;;;34.70;55.20;;;;;;5040624;28;20438;-71
2021/09/05 09:51:37;;;;;;;11.43;8.03;;;34.90;55.30;;;;;;5040374;28;20120;-71
2021/09/05 09:54:04;;;;;;;10.32;8.48;;;35.20;52.80;;;;;;5039923;28;20025;-71
2021/09/05 09:56:30;;;;;;;9.93;7.90;;;35.40;53.80;;;;;;5040477;28;20032;-71
2021/09/05 09:59:02;;;;;;;9.52;7.90;;;35.60;53.10;;;;;;5040038;28;20020;-71
2021/09/05 10:01:30;;;;;;;9.63;6.70;;;35.80;53.30;;;;;;5040393;28;20026;-71
2021/09/05 10:03:58;;;;;;;10.50;7.22;;;36.10;53.20;;;;;;5040093;28;20026;-71
2021/09/05 10:06:29;;;;;;;10.43;6.07;;;36.40;53.30;;;;;;5040068;28;20091;-71
2021/09/05 10:09:01;;;;;;;8.05;5.57;;;36.60;52.30;;;;;;5040062;28;20026;-71
2021/09/05 10:11:28;;;;;;;7.75;5.47;;;36.80;52.30;;;;;;5040035;28;20089;-70
2021/09/05 10:13:57;;;;;;;8.13;5.63;;;37.00;51.70;;;;;;5039774;28;20066;-71
2021/09/05 10:16:24;;;;;;;7.03;5.32;;;37.30;51.10;;;;;;5039984;28;20047;-71
2021/09/05 10:18:53;;;;;;;7.82;6.18;;;37.40;50.70;;;;;;5039771;28;20075;-71
2021/09/05 10:21:21;;;;;;;7.75;5.93;;;37.60;50.50;;;;;;5039453;28;20022;-71
2021/09/05 10:23:55;;;;;;;7.82;5.82;;;37.70;50.60;;;;;;5039772;28;20018;-71
2021/09/05 10:26:23;;;;;;;9.85;5.50;;;37.90;48.90;;;;;;5039453;28;20357;-71
2021/09/05 10:28:51;;;;;;;8.25;6.05;;;38.10;48.80;;;;;;5039903;28;20029;-70
2021/09/05 10:31:31;;;;;;;9.63;5.88;;;38.20;49.00;;;;;;5039522;28;20022;-71
2021/09/05 10:33:58;;;;;;;10.95;9.75;;;38.40;48.60;;;;;;5039264;28;20037;-71
2021/09/05 10:36:27;;;;;;;20.02;18.05;;;38.50;48.30;;;;;;5039214;28;20032;-71
2021/09/05 10:39:06;;;;;;;11.50;10.30;;;38.70;48.00;;;;;;5039420;28;20096;-71
2021/09/05 10:41:32;;;;;;;10.10;6.15;;;38.80;47.90;;;;;;5039306;28;20071;-71
2021/09/05 10:44:08;;;;;;;8.20;6.15;;;39.00;47.40;;;;;;5039423;28;20029;-70
2021/09/05 10:46:48;;;;;;;7.57;5.55;;;39.10;47.00;;;;;;5039464;28;20112;-71
2021/09/05 10:49:14;;;;;;;7.40;5.40;;;39.30;46.00;;;;;;5039281;28;20105;-71
2021/09/05 10:51:51;;;;;;;8.68;5.95;;;39.30;45.50;;;;;;5039412;28;20034;-71
2021/09/05 10:54:29;;;;;;;9.88;6.30;;;39.40;45.90;;;;;;5038827;28;20029;-71
2021/09/05 10:56:57;;;;;;;7.93;5.53;;;39.50;46.20;;;;;;5039054;28;20396;-71
2021/09/05 10:59:25;;;;;;;6.60;5.25;;;39.60;44.80;;;;;;5038843;28;20471;-71
2021/09/05 11:01:50;;;;;;;6.53;5.10;;;39.70;44.60;;;;;;5039230;28;20029;-71
2021/09/05 11:04:38;;;;;;;7.50;5.28;;;39.70;45.10;;;;;;5037786;28;20476;-71
2021/09/05 11:07:08;;;;;;;8.27;5.55;;;39.80;45.30;;;;;;5038640;28;20040;-71
2021/09/05 11:09:34;;;;;;;7.95;5.32;;;39.90;44.70;;;;;;5038912;28;20036;-71
2021/09/05 11:12:11;;;;;;;6.47;4.95;;;39.90;44.40;;;;;;5038877;28;20395;-71
2021/09/05 11:14:37;;;;;;;7.43;5.93;;;40.00;43.90;;;;;;5038962;28;20036;-70
2021/09/05 11:17:12;;;;;;;6.95;4.80;;;40.10;44.00;;;;;;5038881;28;20025;-71
2021/09/05 11:20:00;;;;;;;8.38;5.95;;;40.10;44.20;;;;;;5038823;28;20120;-71
2021/09/05 11:22:34;;;;;;;7.18;5.45;;;40.10;43.70;;;;;;5038653;28;20513;-71
2021/09/05 11:25:06;;;;;;;8.20;4.93;;;40.20;44.20;;;;;;5037119;28;20064;-70
2021/09/05 11:27:33;;;;;;;8.88;5.78;;;40.20;43.80;;;;;;5038669;28;20053;-70
2021/09/05 11:30:04;;;;;;;7.60;5.88;;;40.30;43.50;;;;;;5038464;28;20434;-71
2021/09/05 11:32:29;;;;;;;8.38;5.88;;;40.30;43.80;;;;;;5038239;28;20068;-70
2021/09/05 11:34:57;;;;;;;8.30;6.22;;;40.30;42.60;;;;;;5038443;28;20034;-70
2021/09/05 11:37:29;;;;;;;8.43;5.43;;;40.30;43.40;;;;;;5038242;28;20100;-71
2021/09/05 11:39:56;;;;;;;7.78;5.93;;;40.30;43.70;;;;;;5038209;28;20041;-70
2021/09/05 11:42:22;;;;;;;7.05;5.07;;;40.30;42.30;;;;;;5038032;28;20383;-70
2021/09/05 11:44:48;;;;;;;8.75;5.05;;;40.30;42.80;;;;;;5038313;28;20487;-70
2021/09/05 11:47:19;;;;;;;5.93;4.75;;;40.30;42.10;;;;;;5038706;28;20108;-70
2021/09/05 11:49:53;;;;;;;6.72;5.28;;;40.30;42.40;;;;;;5038269;28;20034;-71
2021/09/05 11:52:26;;;;;;;6.18;4.90;;;40.40;42.00;;;;;;5037901;28;20036;-71
2021/09/05 11:55:12;;;;;;;7.60;5.35;;;40.40;42.60;;;;;;5038019;28;20033;-70
2021/09/05 11:57:59;;;;;;;6.90;4.97;;;40.40;42.50;;;;;;5037895;28;20047;-71
2021/09/05 12:00:29;;;;;;;5.95;4.50;;;40.40;40.90;;;;;;5037942;28;20036;-70
2021/09/05 12:02:56;;;;;;;8.02;5.53;;;40.40;41.20;;;;;;5038132;28;20021;-70
2021/09/05 12:05:22;;;;;;;7.70;5.22;;;40.30;41.50;;;;;;5037237;28;20030;-70
2021/09/05 12:07:49;;;;;;;9.43;5.10;;;40.20;41.00;;;;;;5037809;28;20486;-70
2021/09/05 12:10:17;;;;;;;6.90;5.13;;;40.10;39.40;;;;;;5037585;28;20025;-71
2021/09/05 12:12:44;;;;;;;5.78;4.68;;;39.90;41.00;;;;;;5037841;28;20537;-70
2021/09/05 12:15:15;;;;;;;5.85;4.38;;;39.80;41.10;;;;;;5036262;28;20487;-70
2021/09/05 12:17:48;;;;;;;7.10;4.78;;;39.70;41.00;;;;;;5037658;28;20095;-70
2021/09/05 12:20:16;;;;;;;8.43;4.85;;;39.60;40.90;;;;;;5037746;28;20033;-70
2021/09/05 12:22:54;;;;;;;8.77;5.38;;;39.50;40.70;;;;;;5037388;28;20109;-70
2021/09/05 12:25:34;;;;;;;9.63;4.93;;;39.40;41.00;;;;;;5037384;28;20027;-70
2021/09/05 12:28:07;;;;;;;7.65;5.07;;;39.40;41.80;;;;;;5037404;28;20028;-70
2021/09/05 12:30:38;;;;;;;7.80;5.45;;;39.30;40.40;;;;;;5037543;28;20032;-70
2021/09/05 12:33:08;;;;;;;6.55;4.95;;;39.20;40.90;;;;;;5037213;28;20045;-70